Crystal Bay, Minnesota
Current Conditions -  °F | °C
As of 8:53 PM on Wednesday 22 Oct 2014 (Local Time) from KFCM Reporting Station
Broken Clouds Broken Clouds  
Wind Chill: 57°   Ceiling: 8000
Heat Index: 57°   Visibility: 10mi
Dew Point: 41°   Wind: 12mph
Humidity: 55%   Direction: 170°S
Pressure: 30.04"   Gusts: NA
Location:  44.95°N, 93.58°W
Report Text: KFCM 230153Z 17010KT 10SM SCT070 BKN080 14/05 A3004 RMK AO2 SLP177 T01390050
Loading
Personal Weather Stations






























Interactive Weather Map
Tropical Storm Tracking
New forecast layout! Learn more

10-Day Weather Forecast

Advertisements
Track Severe Weather on mobile